Time;durP1;ratioP1;P1;durP2;ratioP2;P2;SDS_P1;SDS_P2;PMS_P1;PMS_P2;Temp;Humidity;BMP_temperature;BMP_pressure;BME280_temperature;BME280_humidity;BME280_pressure;Samples;Min_cycle;Max_cycle;Signal;HPM_P1;HPM_P2
2022/02/11 00:01:54;;;;;;;10.08;9.05;;;;;;;11.46;60.52;99816.90;1787833;80;21093;-66
2022/02/11 00:04:20;;;;;;;9.80;8.80;;;;;;;11.48;60.52;99814.89;1795837;78;21070;-66
2022/02/11 00:06:49;;;;;;;9.48;8.58;;;;;;;11.47;60.53;99820.38;1807633;78;21026;-66
2022/02/11 00:09:00;;;;;;;9.18;8.25;;;;;;;11.45;60.52;99812.56;1812492;78;21524;-66
2022/02/11 00:11:32;;;;;;;9.73;8.48;;;;;;;11.47;60.51;99817.21;1805722;78;21125;-66
2022/02/11 00:13:58;;;;;;;9.18;8.33;;;;;;;11.46;60.51;99811.58;1823666;78;21068;-67
2022/02/11 00:16:25;;;;;;;9.20;8.35;;;;;;;11.47;60.50;99803.91;1814558;78;21029;-67
2022/02/11 00:20:20;;;;;;;10.08;9.08;;;;;;;11.52;60.49;99790.11;1799386;79;28740;-67
2022/02/11 00:22:49;;;;;;;9.58;8.58;;;;;;;11.48;60.47;99782.97;1749364;80;21124;-66
2022/02/11 00:25:16;;;;;;;9.53;8.63;;;;;;;11.49;60.46;99780.66;1785615;80;21136;-67
2022/02/11 00:30:47;;;;;;;10.13;8.95;;;;;;;11.48;60.42;99771.00;1789605;80;21063;-67
2022/02/11 00:33:15;;;;;;;10.00;8.63;;;;;;;11.48;60.42;99774.17;1781106;80;20950;-66
2022/02/11 00:35:37;;;;;;;9.80;8.73;;;;;;;11.47;60.41;99757.36;1741851;81;20954;-67
2022/02/11 00:37:59;;;;;;;8.90;8.10;;;;;;;11.48;60.42;99758.20;1736489;80;21155;-66
2022/02/11 00:41:08;;;;;;;10.53;9.43;;;;;;;11.48;60.43;99764.86;1750207;80;21520;-65
2022/02/11 00:45:50;;;;;;;9.20;8.30;;;;;;;11.46;60.43;99758.38;1729861;81;21037;-66
2022/02/11 01:04:12;;;;;;;9.73;8.83;;;;;;;11.45;60.41;99755.38;1819475;78;21393;-64
2022/02/11 01:06:38;;;;;;;10.05;9.05;;;;;;;11.44;60.42;99759.05;1785725;78;21027;-66
2022/02/11 01:09:05;;;;;;;9.93;8.93;;;;;;;11.45;60.40;99763.86;1789371;80;21083;-65
2022/02/11 01:11:45;;;;;;;9.68;8.68;;;;;;;11.44;60.40;99755.06;1742015;81;20990;-65
2022/02/11 01:14:04;;;;;;;9.03;8.13;;;;;;;11.44;60.39;99756.39;1731263;81;21076;-67
2022/02/11 01:16:40;;;;;;;10.23;9.00;;;;;;;11.44;60.42;99758.23;1761337;80;21012;-66
2022/02/11 01:19:19;;;;;;;9.95;8.80;;;;;;;11.45;60.38;99756.70;1749996;80;21028;-67
2022/02/11 01:21:43;;;;;;;9.45;8.50;;;;;;;11.45;60.40;99758.03;1738341;81;21484;-67
2022/02/11 01:24:46;;;;;;;9.40;8.40;;;;;;;11.44;60.40;99757.72;1758815;81;21020;-66
2022/02/11 01:26:48;;;;;;;8.98;8.08;;;;;;;11.44;60.37;99751.07;1736861;81;21022;-65
2022/02/11 01:29:30;;;;;;;9.50;8.53;;;;;;;11.44;60.37;99756.39;1755816;81;21124;-66
2022/02/11 01:31:50;;;;;;;8.38;7.58;;;;;;;11.44;60.38;99760.38;1743648;81;21005;-66
2022/02/11 01:34:43;;;;;;;9.63;8.63;;;;;;;11.44;60.36;99747.08;1744438;81;21154;-66
2022/02/11 01:40:49;;;;;;;8.80;7.92;;;;;;;11.44;60.33;99744.42;1700419;84;21401;-66
2022/02/11 01:45:07;;;;;;;9.15;8.15;;;;;;;11.44;60.32;99736.95;1766271;81;21022;-67
2022/02/11 01:50:35;;;;;;;8.98;8.05;;;;;;;11.43;60.32;99730.78;1759136;81;21501;-65
2022/02/11 01:58:42;;;;;;;9.13;7.80;;;;;;;11.41;60.32;99711.50;1701611;84;21087;-67
2022/02/11 02:01:08;;;;;;;10.38;8.65;;;;;;;11.41;60.29;99712.84;1719688;81;21056;-67
2022/02/11 02:06:18;;;;;;;9.53;8.57;;;;;;;11.40;60.29;99702.70;1744363;81;21049;-67
2022/02/11 02:14:03;;;;;;;9.15;8.23;;;;;;;11.40;60.26;99691.25;1757990;81;21029;-66
2022/02/11 02:19:33;;;;;;;9.63;8.63;;;;;;;11.42;60.24;99685.25;1753672;80;21056;-66
2022/02/11 02:34:58;;;;;;;9.13;8.23;;;;;;;11.40;60.14;99658.81;1748554;81;21120;-67
2022/02/11 02:50:20;;;;;;;9.60;8.60;;;;;;;11.40;60.08;99634.06;1753717;81;21108;-67
2022/02/11 02:56:40;;;;;;;9.30;8.35;;;;;;;11.39;60.08;99633.72;1747043;81;21482;-67
2022/02/11 02:58:25;;;;;;;10.35;8.43;;;;;;;11.39;60.06;99643.03;1751260;81;21072;-66
2022/02/11 03:14:56;;;;;;;9.60;8.63;;;;;;;11.37;60.03;99634.40;1759511;81;21149;-68
2022/02/11 04:08:40;;;;;;;8.50;7.60;;;;;;;11.28;59.82;99558.33;1739444;81;21106;-66
2022/02/11 04:20:37;;;;;;;7.97;7.17;;;;;;;11.37;59.79;99559.92;1755054;81;21558;-66
2022/02/11 04:56:47;;;;;;;7.80;7.08;;;;;;;11.34;59.59;99539.02;1754615;81;21615;-67
2022/02/11 05:01:58;;;;;;;7.60;6.80;;;;;;;11.35;59.57;99545.98;1756832;81;21529;-68
2022/02/11 05:04:24;;;;;;;8.08;7.28;;;;;;;11.35;59.53;99540.16;1739417;81;21009;-67
2022/02/11 05:06:51;;;;;;;8.03;7.22;;;;;;;11.35;59.50;99526.85;1741081;81;21085;-66
2022/02/11 05:09:18;;;;;;;7.67;6.90;;;;;;;11.36;59.50;99543.66;1744574;81;21011;-66
2022/02/11 05:11:44;;;;;;;7.80;7.03;;;;;;;11.36;59.46;99545.81;1753850;81;21040;-66
2022/02/11 05:14:13;;;;;;;7.67;6.90;;;;;;;11.36;59.46;99535.17;1742288;81;21225;-66
2022/02/11 05:16:40;;;;;;;7.28;6.58;;;;;;;11.37;59.44;99532.00;1750952;81;21080;-65
2022/02/11 05:19:07;;;;;;;7.08;6.37;;;;;;;11.37;59.40;99525.35;1738078;81;21097;-65
2022/02/11 05:21:34;;;;;;;7.80;6.62;;;;;;;11.37;59.40;99543.45;1736931;81;21033;-65
2022/02/11 05:24:00;;;;;;;7.70;7.00;;;;;;;11.37;59.36;99546.63;1738380;81;21008;-65
2022/02/11 05:26:26;;;;;;;8.45;7.17;;;;;;;11.38;59.33;99527.02;1739311;81;21131;-66
2022/02/11 05:28:53;;;;;;;7.58;6.85;;;;;;;11.39;59.32;99543.29;1741078;81;21611;-66
2022/02/11 05:31:20;;;;;;;7.65;6.87;;;;;;;11.39;59.29;99520.17;1745485;81;21005;-65
2022/02/11 05:33:47;;;;;;;7.80;7.00;;;;;;;11.39;59.27;99525.48;1753778;81;21032;-65
2022/02/11 05:36:15;;;;;;;7.78;7.00;;;;;;;11.39;59.24;99523.34;1753009;81;21075;-65
2022/02/11 05:38:42;;;;;;;7.80;7.08;;;;;;;11.39;59.24;99542.78;1744573;81;21285;-65
2022/02/11 05:41:10;;;;;;;7.42;6.50;;;;;;;11.39;59.22;99524.16;1736760;81;21069;-64
2022/02/11 05:43:40;;;;;;;7.58;6.87;;;;;;;11.39;59.20;99522.83;1740314;81;21087;-64
2022/02/11 05:46:05;;;;;;;6.92;6.22;;;;;;;11.39;59.18;99525.48;1739555;81;21498;-65
2022/02/11 05:48:33;;;;;;;7.83;7.10;;;;;;;11.39;59.19;99528.14;1746945;81;21512;-65
2022/02/11 05:50:59;;;;;;;7.62;6.70;;;;;;;11.39;59.16;99522.83;1747565;81;21713;-65
2022/02/11 05:53:26;;;;;;;6.95;6.25;;;;;;;11.41;59.16;99523.98;1752629;81;21592;-65
2022/02/11 05:55:52;;;;;;;7.50;6.80;;;;;;;11.41;59.13;99524.84;1740477;81;21017;-66
2022/02/11 05:58:18;;;;;;;8.20;7.40;;;;;;;11.41;59.12;99521.33;1738088;81;22054;-65
2022/02/11 06:00:45;;;;;;;7.75;7.05;;;;;;;11.41;59.11;99526.16;1746112;81;21056;-68
2022/02/11 06:03:12;;;;;;;7.35;6.55;;;;;;;11.42;59.09;99517.67;1741766;81;21964;-69
2022/02/11 06:05:40;;;;;;;7.70;7.00;;;;;;;11.41;59.08;99523.50;1743771;81;21429;-69
2022/02/11 06:08:07;;;;;;;7.53;6.72;;;;;;;11.43;59.07;99523.30;1756100;81;21036;-70
2022/02/11 06:10:33;;;;;;;7.62;6.30;;;;;;;11.44;59.02;99519.66;1758125;81;21049;-70
2022/02/11 06:13:02;;;;;;;7.37;6.67;;;;;;;11.44;59.01;99458.98;1742937;81;21041;-72
2022/02/11 06:15:28;;;;;;;7.75;7.05;;;;;;;11.45;59.04;99471.27;1740610;81;21149;-71
2022/02/11 06:17:54;;;;;;;8.20;7.40;;;;;;;11.45;59.31;99468.59;1750290;81;20953;-70
2022/02/11 06:20:27;;;;;;;8.15;7.35;;;;;;;11.46;59.56;99463.62;1749423;79;21044;-70
2022/02/11 06:22:50;;;;;;;10.20;8.33;;;;;;;11.47;59.82;99471.39;1749938;81;21072;-69
2022/02/11 06:25:16;;;;;;;10.40;8.85;;;;;;;11.46;60.08;99473.75;1728317;81;21051;-68
2022/02/11 06:27:42;;;;;;;9.03;7.95;;;;;;;11.47;60.27;99462.08;1769550;81;21099;-69
2022/02/11 06:30:11;;;;;;;10.63;9.53;;;;;;;11.47;60.43;99464.74;1757901;81;21165;-70
2022/02/11 06:32:37;;;;;;;11.38;10.18;;;;;;;11.49;60.54;99459.25;1740998;81;20996;-69
2022/02/11 06:35:06;;;;;;;11.03;9.55;;;;;;;11.50;60.62;99462.25;1741299;81;21112;-70
2022/02/11 06:37:32;;;;;;;11.88;9.80;;;;;;;11.50;60.70;99437.80;1758663;81;21028;-69
2022/02/11 06:39:59;;;;;;;13.43;9.85;;;;;;;11.52;60.81;99475.68;1747657;81;21101;-68
2022/02/11 06:42:25;;;;;;;11.00;9.85;;;;;;;11.54;60.89;99469.67;1756892;81;21056;-71
2022/02/11 06:44:52;;;;;;;10.03;9.03;;;;;;;11.56;60.92;99449.55;1740399;81;21548;-70
2022/02/11 06:47:19;;;;;;;14.90;10.63;;;;;;;11.57;60.94;99453.84;1742660;81;21517;-69
2022/02/11 06:49:45;;;;;;;10.45;9.35;;;;;;;11.58;60.93;99462.98;1743755;81;21524;-69
2022/02/11 06:52:11;;;;;;;12.60;9.75;;;;;;;11.59;60.97;99461.98;1740918;81;21115;-69
2022/02/11 06:54:38;;;;;;;9.60;8.60;;;;;;;11.60;61.00;99465.46;1742293;81;21044;-70
2022/02/11 06:57:04;;;;;;;10.43;9.40;;;;;;;11.62;61.03;99458.13;1741827;81;21488;-70
2022/02/11 06:59:30;;;;;;;10.55;8.78;;;;;;;11.64;61.05;99458.77;1760418;81;21009;-69
2022/02/11 07:01:57;;;;;;;11.43;9.28;;;;;;;11.65;61.05;99452.94;1748853;81;21113;-70
2022/02/11 07:04:23;;;;;;;10.60;9.08;;;;;;;11.66;61.01;99459.41;1743309;81;21158;-70
2022/02/11 07:06:51;;;;;;;12.00;9.68;;;;;;;11.69;60.95;99452.92;1752508;81;21005;-69
2022/02/11 07:09:18;;;;;;;11.68;9.63;;;;;;;11.69;60.89;99476.36;1758672;81;21450;-68
2022/02/11 07:11:44;;;;;;;10.50;9.35;;;;;;;11.70;60.81;99492.63;1749268;81;20997;-68
2022/02/11 07:14:11;;;;;;;9.98;8.73;;;;;;;11.71;60.82;99484.16;1740682;81;21072;-69
2022/02/11 07:16:39;;;;;;;9.40;8.43;;;;;;;11.73;60.82;99496.27;1755856;81;21068;-69
2022/02/11 07:19:06;;;;;;;10.78;9.28;;;;;;;11.73;60.88;99495.45;1741033;81;20997;-70
2022/02/11 07:21:33;;;;;;;11.35;9.25;;;;;;;11.75;60.92;99491.59;1743259;81;21044;-69
2022/02/11 07:23:59;;;;;;;10.38;9.03;;;;;;;11.77;60.98;99502.88;1742443;81;21017;-70
2022/02/11 07:26:26;;;;;;;12.82;10.18;;;;;;;11.80;61.02;99495.02;1745436;81;21014;-69
2022/02/11 07:28:53;;;;;;;13.90;10.68;;;;;;;11.80;61.03;99508.33;1746758;81;21150;-69
2022/02/11 07:31:19;;;;;;;14.40;11.03;;;;;;;11.82;61.05;99505.02;1746117;81;21556;-69
2022/02/11 07:33:46;;;;;;;15.65;10.68;;;;;;;11.84;61.07;99508.80;1740469;81;21044;-69
2022/02/11 07:36:14;;;;;;;12.55;9.28;;;;;;;11.86;61.08;99502.78;1744305;81;21107;-66
2022/02/11 07:38:40;;;;;;;13.18;9.95;;;;;;;11.87;61.08;99497.29;1751443;81;21021;-69
2022/02/11 07:41:06;;;;;;;12.63;9.70;;;;;;;11.90;61.07;99481.00;1749934;81;21184;-69
2022/02/11 07:43:33;;;;;;;11.50;8.93;;;;;;;11.93;61.08;99498.42;1763140;81;21130;-68
2022/02/11 07:46:01;;;;;;;11.73;9.65;;;;;;;11.96;61.04;99508.72;1754303;81;21109;-69
2022/02/11 07:48:28;;;;;;;11.85;9.40;;;;;;;11.99;60.99;99503.02;1760109;81;21006;-69
2022/02/11 07:50:55;;;;;;;12.43;9.43;;;;;;;12.03;60.95;99504.81;1759411;81;21061;-68
2022/02/11 07:53:21;;;;;;;10.50;8.55;;;;;;;12.05;60.94;99514.77;1751055;81;21216;-68
2022/02/11 07:55:50;;;;;;;10.40;9.25;;;;;;;12.08;60.91;99539.71;1749672;81;21057;-68
2022/02/11 07:58:20;;;;;;;8.60;7.70;;;;;;;12.09;60.92;99540.86;1750811;81;22063;-70
2022/02/11 08:00:46;;;;;;;10.75;8.60;;;;;;;12.11;61.10;99539.33;1757066;79;21057;-71
2022/02/11 08:03:12;;;;;;;13.98;9.00;;;;;;;12.15;61.48;99543.30;1754026;81;21060;-68
2022/02/11 08:05:40;;;;;;;11.03;8.75;;;;;;;12.17;62.24;99538.11;1762713;79;21087;-71
2022/02/11 08:08:06;;;;;;;12.55;8.25;;;;;;;12.20;62.75;99547.05;1726561;80;21487;-67
2022/02/11 08:10:33;;;;;;;9.80;7.75;;;;;;;12.21;63.03;99538.57;1762588;79;21090;-70
2022/02/11 08:13:00;;;;;;;11.73;8.45;;;;;;;12.22;63.20;99541.54;1725273;81;21041;-70
2022/02/11 08:15:26;;;;;;;9.63;7.67;;;;;;;12.21;63.25;99538.57;1744242;81;21055;-70
2022/02/11 08:17:53;;;;;;;9.60;7.92;;;;;;;12.22;63.27;99546.05;1746873;81;21206;-69
2022/02/11 08:20:19;;;;;;;10.13;8.68;;;;;;;12.22;63.24;99543.38;1758504;81;21070;-67
2022/02/11 08:22:47;;;;;;;9.95;8.40;;;;;;;12.20;63.18;99546.22;1739129;79;21016;-70
2022/02/11 08:25:13;;;;;;;9.70;7.33;;;;;;;12.18;63.12;99545.07;1740487;81;21161;-68
2022/02/11 08:27:40;;;;;;;9.03;7.55;;;;;;;12.19;63.04;99541.92;1744811;81;21552;-69
2022/02/11 08:30:08;;;;;;;9.30;7.58;;;;;;;12.18;62.95;99543.73;1744626;81;22027;-68
2022/02/11 08:32:34;;;;;;;7.58;6.78;;;;;;;12.18;62.83;99549.06;1737488;79;21076;-69
2022/02/11 08:35:01;;;;;;;8.65;7.17;;;;;;;12.18;62.74;99552.23;1755674;81;21473;-69
2022/02/11 08:37:28;;;;;;;10.13;8.43;;;;;;;12.19;62.61;99553.91;1736973;81;21600;-68
2022/02/11 08:39:54;;;;;;;8.85;7.60;;;;;;;12.18;62.51;99558.38;1736062;81;21033;-70
2022/02/11 08:42:20;;;;;;;8.38;7.05;;;;;;;12.18;62.39;99559.72;1736782;81;21125;-70
2022/02/11 08:44:47;;;;;;;8.48;7.58;;;;;;;12.20;62.29;99568.86;1736588;79;21041;-67
2022/02/11 08:47:14;;;;;;;9.38;7.55;;;;;;;12.21;62.19;99573.19;1757369;81;21040;-69
2022/02/11 08:49:41;;;;;;;8.43;7.17;;;;;;;12.22;62.08;99571.34;1750908;81;21145;-69
2022/02/11 08:52:08;;;;;;;8.18;7.30;;;;;;;12.22;61.98;99577.49;1753908;81;21072;-67
2022/02/11 08:54:35;;;;;;;9.20;7.78;;;;;;;12.23;61.86;99584.48;1735369;81;21125;-68
2022/02/11 08:57:01;;;;;;;8.93;7.42;;;;;;;12.24;61.76;99582.64;1736433;82;21025;-69
2022/02/11 08:59:28;;;;;;;8.75;7.55;;;;;;;12.23;61.67;99591.63;1765299;79;21584;-69
2022/02/11 09:01:54;;;;;;;9.00;7.20;;;;;;;12.22;61.58;99592.14;1766793;81;21536;-69
2022/02/11 09:04:20;;;;;;;7.62;6.90;;;;;;;12.22;61.51;99596.13;1759533;81;21112;-67
2022/02/11 09:06:46;;;;;;;9.55;7.37;;;;;;;12.21;61.46;99589.17;1759332;81;21501;-69
2022/02/11 09:09:15;;;;;;;9.38;7.70;;;;;;;12.22;61.37;99593.98;1744161;81;21072;-68
2022/02/11 09:11:42;;;;;;;8.65;7.35;;;;;;;12.22;61.31;99592.66;1741972;81;21561;-69
2022/02/11 09:14:11;;;;;;;8.85;7.55;;;;;;;12.20;61.24;99594.98;1754527;81;21836;-69
2022/02/11 09:16:37;;;;;;;8.13;7.33;;;;;;;12.20;61.18;99599.48;1746599;81;21069;-69
2022/02/11 09:19:06;;;;;;;9.50;7.72;;;;;;;12.19;61.12;99605.84;1753861;81;21525;-68
2022/02/11 09:21:32;;;;;;;8.63;6.87;;;;;;;12.20;61.08;99598.16;1751904;81;20993;-70
2022/02/11 09:23:58;;;;;;;9.18;7.35;;;;;;;12.18;61.04;99596.18;1755805;81;21506;-68
2022/02/11 09:26:25;;;;;;;7.92;7.12;;;;;;;12.17;60.98;99596.70;1756225;81;21041;-68
2022/02/11 09:28:51;;;;;;;9.40;7.30;;;;;;;12.16;60.93;99593.69;1687070;84;21043;-69
2022/02/11 09:31:19;;;;;;;7.42;6.67;;;;;;;12.17;60.90;99596.70;1730509;82;21098;-68
2022/02/11 09:33:45;;;;;;;8.60;7.00;;;;;;;12.17;60.85;99593.21;1709961;82;21052;-68
2022/02/11 09:36:12;;;;;;;8.43;6.92;;;;;;;12.16;60.80;99596.36;1709317;82;21061;-71
2022/02/11 09:38:39;;;;;;;8.73;7.67;;;;;;;12.16;60.76;99592.88;1759477;79;21086;-67
2022/02/11 09:41:06;;;;;;;7.67;6.72;;;;;;;12.17;60.73;99597.20;1746984;81;21013;-67
2022/02/11 09:43:32;;;;;;;7.45;6.62;;;;;;;12.16;60.71;99599.02;1751452;81;21212;-68
2022/02/11 09:45:59;;;;;;;8.83;7.50;;;;;;;12.17;60.65;99599.36;1745257;81;20997;-67
2022/02/11 09:48:25;;;;;;;8.80;7.90;;;;;;;12.17;60.61;99601.20;1755021;81;21112;-67
2022/02/11 09:50:56;;;;;;;9.03;7.33;;;;;;;12.17;60.57;99603.86;1752528;81;21041;-68
2022/02/11 09:53:27;;;;;;;7.85;7.05;;;;;;;12.17;60.53;99603.35;1750305;81;21073;-69
2022/02/11 09:55:54;;;;;;;8.68;7.53;;;;;;;12.18;60.51;99604.17;1749176;81;21155;-68
2022/02/11 09:58:21;;;;;;;7.58;6.87;;;;;;;12.18;60.49;99610.83;1754113;81;21076;-69
2022/02/11 10:00:49;;;;;;;10.85;7.15;;;;;;;12.17;60.45;99606.02;1753833;81;21465;-66
2022/02/11 10:03:23;;;;;;;8.15;7.30;;;;;;;12.17;60.41;99613.19;1747346;81;21042;-68
2022/02/11 10:06:02;;;;;;;7.47;6.67;;;;;;;12.17;60.38;99618.00;1762847;81;21037;-70
2022/02/11 10:08:33;;;;;;;8.33;6.97;;;;;;;12.18;60.35;99622.81;1748186;81;21142;-67
2022/02/11 10:11:00;;;;;;;8.25;6.80;;;;;;;12.18;60.31;99624.14;1742715;81;21023;-68
2022/02/11 10:13:30;;;;;;;7.95;7.15;;;;;;;12.16;60.30;99629.64;1749593;81;21096;-68
2022/02/11 10:16:06;;;;;;;8.60;7.78;;;;;;;12.18;60.27;99630.80;1765085;79;21044;-68
2022/02/11 10:18:31;;;;;;;8.48;7.58;;;;;;;12.18;60.27;99636.13;1751448;81;20999;-67
2022/02/11 10:21:02;;;;;;;9.18;7.10;;;;;;;12.16;60.22;99634.97;1748032;81;20998;-69
2022/02/11 10:23:36;;;;;;;7.78;7.00;;;;;;;12.16;60.20;99638.97;1751162;80;21590;-68
2022/02/11 10:26:13;;;;;;;8.65;7.75;;;;;;;12.17;60.18;99633.16;1747670;80;21100;-69
2022/02/11 10:28:45;;;;;;;7.42;6.67;;;;;;;12.17;60.18;99636.64;1754335;81;21013;-68
2022/02/11 10:31:25;;;;;;;7.92;7.10;;;;;;;12.17;60.17;99633.16;1745703;81;21109;-66
2022/02/11 10:34:10;;;;;;;8.65;7.60;;;;;;;12.17;60.16;99633.98;1744098;81;21210;-69
2022/02/11 10:36:41;;;;;;;8.13;7.35;;;;;;;12.17;60.12;99627.83;1749093;81;21545;-72
2022/02/11 10:39:27;;;;;;;8.35;6.97;;;;;;;12.18;60.09;99637.45;1760357;81;21005;-67
2022/02/11 10:41:59;;;;;;;8.78;7.35;;;;;;;12.17;60.09;99640.63;1743468;81;21029;-68
2022/02/11 10:44:34;;;;;;;8.13;7.28;;;;;;;12.18;60.06;99642.27;1745361;81;21144;-69
2022/02/11 10:47:04;;;;;;;9.35;7.53;;;;;;;12.18;60.06;99638.28;1754039;81;21185;-68
2022/02/11 10:49:43;;;;;;;8.43;6.75;;;;;;;12.19;60.03;99648.45;1753226;81;21508;-68
2022/02/11 10:52:23;;;;;;;9.18;7.62;;;;;;;12.20;60.00;99646.91;1751938;81;21096;-68
2022/02/11 10:54:51;;;;;;;7.72;6.92;;;;;;;12.20;59.98;99643.43;1744363;81;20993;-68
2022/02/11 10:57:31;;;;;;;8.85;7.90;;;;;;;12.21;59.95;99646.43;1745769;81;21520;-68
2022/02/11 10:59:57;;;;;;;7.78;7.08;;;;;;;12.21;59.93;99643.77;1742308;81;22657;-68
2022/02/11 11:02:24;;;;;;;8.05;7.25;;;;;;;12.22;59.93;99649.40;1741744;81;21735;-70
2022/02/11 11:04:52;;;;;;;8.10;7.08;;;;;;;12.23;59.90;99655.55;1745520;81;21056;-69
2022/02/11 11:07:25;;;;;;;8.53;7.53;;;;;;;12.23;59.88;99656.40;1744902;81;21077;-68
2022/02/11 11:09:53;;;;;;;8.13;7.08;;;;;;;12.23;59.86;99656.40;1759394;81;21068;-69
2022/02/11 11:12:26;;;;;;;8.18;7.08;;;;;;;12.25;59.83;99662.88;1743075;82;21122;-68
2022/02/11 11:14:59;;;;;;;7.95;7.15;;;;;;;12.25;59.82;99659.70;1755161;81;21072;-66
2022/02/11 11:17:25;;;;;;;7.85;7.05;;;;;;;12.25;59.78;99658.37;1761646;81;21095;-66
2022/02/11 11:19:54;;;;;;;7.78;6.97;;;;;;;12.26;59.77;99665.34;1747928;81;21030;-67
2022/02/11 11:22:28;;;;;;;8.18;7.33;;;;;;;12.27;59.75;99672.34;1755490;80;21053;-68
2022/02/11 11:25:00;;;;;;;8.63;7.42;;;;;;;12.27;59.72;99667.01;1738418;81;21169;-68
2022/02/11 11:27:50;;;;;;;8.70;7.80;;;;;;;12.27;59.69;99668.85;1731228;81;21101;-68
2022/02/11 11:30:27;;;;;;;8.13;6.78;;;;;;;12.28;59.69;99671.82;1736751;81;21685;-70
2022/02/11 11:33:15;;;;;;;8.73;7.20;;;;;;;12.28;59.66;99675.81;1741136;81;21040;-69
2022/02/11 11:35:53;;;;;;;7.75;6.95;;;;;;;12.28;59.64;99670.49;1746470;80;21050;-67
2022/02/11 11:38:24;;;;;;;8.05;7.03;;;;;;;12.28;59.64;99673.98;1745461;80;21132;-69
2022/02/11 11:41:17;;;;;;;8.45;6.95;;;;;;;12.27;59.63;99673.67;1747500;80;21053;-68
2022/02/11 11:44:17;;;;;;;8.00;7.20;;;;;;;12.27;59.61;99669.67;1744573;80;21008;-67
2022/02/11 11:46:49;;;;;;;9.63;7.28;;;;;;;12.28;59.62;99675.81;1729955;82;21015;-68
2022/02/11 11:49:17;;;;;;;8.13;7.30;;;;;;;12.27;59.61;99681.66;1750709;80;21081;-68
2022/02/11 11:51:49;;;;;;;9.25;7.40;;;;;;;12.27;59.62;99679.51;1755106;80;21257;-68
2022/02/11 11:54:21;;;;;;;8.53;7.22;;;;;;;12.28;59.64;99682.48;1750139;80;21018;-68
2022/02/11 11:57:06;;;;;;;7.77;6.93;;;;;;;12.27;59.61;99677.66;1747669;80;21110;-68
2022/02/11 11:59:50;;;;;;;7.95;7.15;;;;;;;12.27;59.61;99680.33;1749698;80;21760;-67
2022/02/11 12:02:27;;;;;;;8.48;7.42;;;;;;;12.27;59.60;99676.33;1760869;80;20990;-70
2022/02/11 12:04:58;;;;;;;7.78;7.00;;;;;;;12.29;59.56;99673.49;1748236;80;21135;-67
2022/02/11 12:07:28;;;;;;;7.08;6.35;;;;;;;12.27;59.55;99672.34;1758787;80;21031;-69
2022/02/11 12:09:56;;;;;;;7.67;6.85;;;;;;;12.32;59.55;99679.29;1754412;79;21065;-66
2022/02/11 12:12:25;;;;;;;7.35;6.65;;;;;;;12.34;59.54;99687.93;1756815;79;21065;-65
2022/02/11 12:14:57;;;;;;;7.87;7.08;;;;;;;12.36;59.49;99688.58;1745755;80;21085;-67
2022/02/11 12:17:24;;;;;;;8.40;6.97;;;;;;;12.38;59.48;99690.55;1746586;80;21093;-65
2022/02/11 12:19:51;;;;;;;8.15;7.05;;;;;;;12.41;59.45;99687.20;1772166;80;21479;-64
2022/02/11 12:22:19;;;;;;;6.92;6.20;;;;;;;12.43;59.40;99690.50;1768868;80;21139;-67
2022/02/11 12:27:36;;;;;;;7.33;6.62;;;;;;;12.46;59.34;99685.64;1773900;79;21072;-67
2022/02/11 12:30:17;;;;;;;7.83;7.03;;;;;;;12.49;59.29;99692.44;1755884;80;23023;-67
2022/02/11 12:32:47;;;;;;;7.55;6.80;;;;;;;12.54;59.22;99688.73;1762670;80;21109;-67
2022/02/11 12:37:45;;;;;;;6.92;6.22;;;;;;;12.71;59.06;99696.03;1864435;76;28003;-64
2022/02/11 12:40:21;;;;;;;7.08;6.37;;;;;;;12.72;58.95;99701.19;1816497;77;21042;-67
2022/02/11 12:42:46;;;;;;;;;;;;;;;12.78;58.84;99700.96;1824337;77;21128;-66
2022/02/11 12:45:15;;;;;;;7.35;6.60;;;;;;;12.82;58.76;99702.25;1814934;78;20643;-68
2022/02/11 12:47:41;;;;;;;7.80;6.95;;;;;;;12.85;58.71;99702.41;1819269;77;20993;-65
2022/02/11 12:50:09;;;;;;;6.87;6.10;;;;;;;13.03;58.55;99702.02;1830630;77;21528;-66
2022/02/11 12:52:36;;;;;;;6.95;6.12;;;;;;;13.37;58.15;99705.47;1822890;77;21040;-67
2022/02/11 12:55:11;;;;;;;7.22;6.53;;;;;;;13.85;57.41;99702.27;1830475;77;21262;-67
2022/02/11 12:57:43;;;;;;;6.55;5.85;;;;;;;14.30;56.58;99696.22;1819396;77;21549;-67
2022/02/11 13:00:20;;;;;;;6.85;6.15;;;;;;;14.65;55.83;99691.77;1817213;77;21005;-67
2022/02/11 13:02:47;;;;;;;7.70;6.90;;;;;;;14.94;55.20;99693.38;1822683;77;21037;-67
2022/02/11 13:05:20;;;;;;;7.33;6.62;;;;;;;15.13;54.81;99685.12;1825278;78;21068;-67
2022/02/11 13:07:49;;;;;;;7.17;6.47;;;;;;;15.40;54.42;99691.94;1808524;78;21623;-68
2022/02/11 13:10:30;;;;;;;7.08;6.37;;;;;;;15.62;54.07;99681.89;1817983;77;21028;-67
2022/02/11 13:13:00;;;;;;;6.12;5.53;;;;;;;15.89;53.69;99685.47;1818072;78;21056;-66
2022/02/11 13:15:35;;;;;;;6.78;6.08;;;;;;;16.06;53.38;99691.27;1817600;78;21000;-67
2022/02/11 13:18:14;;;;;;;6.97;6.37;;;;;;;16.08;53.24;99689.73;1805681;77;21574;-67
2022/02/11 13:20:42;;;;;;;5.90;5.30;;;;;;;16.00;53.25;99689.41;1806919;78;22375;-67
2022/02/11 13:23:13;;;;;;;6.28;5.67;;;;;;;15.96;53.33;99695.40;1818705;77;21021;-67
2022/02/11 13:25:41;;;;;;;6.00;5.37;;;;;;;15.91;53.46;99698.67;1815147;78;21001;-66
2022/02/11 13:28:13;;;;;;;5.42;4.90;;;;;;;15.89;53.62;99704.22;1824471;78;21013;-66
2022/02/11 13:30:45;;;;;;;5.42;4.90;;;;;;;15.86;53.74;99703.31;1804375;78;21048;-67
2022/02/11 13:33:28;;;;;;;5.95;5.33;;;;;;;15.81;53.88;99709.78;1804387;78;21073;-66
2022/02/11 13:35:57;;;;;;;6.17;5.50;;;;;;;15.76;54.02;99706.91;1824557;77;28977;-66
2022/02/11 13:38:26;;;;;;;6.12;5.53;;;;;;;15.68;54.15;99715.08;1828677;77;21057;-66
2022/02/11 13:40:59;;;;;;;5.67;5.08;;;;;;;15.62;54.26;99718.04;1817547;77;22318;-66
2022/02/11 13:43:26;;;;;;;5.40;4.90;;;;;;;15.52;54.41;99713.07;1819814;78;21083;-66
2022/02/11 13:45:57;;;;;;;6.17;4.75;;;;;;;15.44;54.55;99713.25;1830360;78;21775;-66
2022/02/11 13:48:25;;;;;;;5.55;4.75;;;;;;;15.38;54.71;99722.09;1831371;77;21694;-64
2022/02/11 13:51:14;;;;;;;5.78;5.22;;;;;;;15.32;54.83;99726.91;1831272;78;21056;-66
2022/02/11 13:53:44;;;;;;;5.55;5.05;;;;;;;15.25;54.92;99726.86;1817806;77;21270;-65
2022/02/11 13:56:12;;;;;;;5.12;4.62;;;;;;;15.19;55.03;99733.02;1825666;78;21025;-65
2022/02/11 13:58:42;;;;;;;5.15;4.65;;;;;;;15.13;55.11;99729.28;1825320;77;21806;-66
2022/02/11 14:01:26;;;;;;;5.25;4.75;;;;;;;15.09;55.17;99730.70;1823566;76;21033;-68
2022/02/11 14:03:54;;;;;;;5.70;5.08;;;;;;;15.05;55.23;99735.33;1826365;77;20989;-67
2022/02/11 14:06:21;;;;;;;4.87;4.37;;;;;;;14.98;55.28;99736.61;1813977;78;20982;-65
2022/02/11 14:08:49;;;;;;;5.10;4.60;;;;;;;14.93;55.36;99737.70;1831416;78;21050;-65
2022/02/11 14:11:23;;;;;;;5.20;4.70;;;;;;;14.88;55.45;99738.30;1830443;78;21120;-64
2022/02/11 14:13:48;;;;;;;5.53;5.03;;;;;;;14.84;56.23;99704.95;1826482;78;21560;-63
2022/02/11 14:16:17;;;;;;;5.85;5.25;;;;;;;14.84;58.63;99712.97;1821240;78;21066;-63
2022/02/11 14:18:43;;;;;;;7.15;5.37;;;;;;;14.85;59.94;99710.59;1830313;77;21053;-63
2022/02/11 14:21:16;;;;;;;5.12;4.62;;;;;;;14.88;60.90;99717.42;1831497;78;21039;-63
2022/02/11 14:23:42;;;;;;;7.35;5.25;;;;;;;14.90;61.85;99719.38;1827631;76;21092;-64
2022/02/11 14:26:08;;;;;;;6.92;5.40;;;;;;;14.92;62.69;99718.16;1834235;76;21557;-63
2022/02/11 14:28:34;;;;;;;5.65;5.03;;;;;;;14.94;63.23;99716.63;1835019;76;21505;-63
2022/02/11 14:31:03;;;;;;;7.15;5.30;;;;;;;14.98;63.71;99727.77;1830465;78;21007;-62
2022/02/11 14:33:32;;;;;;;5.92;4.55;;;;;;;14.98;64.18;99732.59;1829992;78;21068;-64
2022/02/11 14:35:58;;;;;;;5.62;5.05;;;;;;;15.00;64.64;99746.59;1831618;78;21814;-63
2022/02/11 14:38:24;;;;;;;6.05;4.75;;;;;;;15.01;65.02;99748.27;1826473;78;21649;-63
2022/02/11 14:43:37;;;;;;;6.90;5.65;;;;;;;15.03;65.48;99752.91;1815115;76;21095;-62
2022/02/11 14:46:03;;;;;;;5.70;5.20;;;;;;;15.03;65.68;99770.29;1788328;79;21040;-62
2022/02/11 14:48:30;;;;;;;6.78;5.12;;;;;;;15.02;65.74;99765.95;1801029;76;21449;-63
2022/02/11 14:50:56;;;;;;;5.85;5.12;;;;;;;15.03;65.89;99767.62;1803440;77;20994;-61
2022/02/11 14:53:23;;;;;;;6.40;5.55;;;;;;;15.03;66.06;99767.62;1805519;78;21043;-64
2022/02/11 14:55:49;;;;;;;5.85;5.25;;;;;;;15.02;66.22;99768.62;1824708;77;21012;-63
2022/02/11 14:58:15;;;;;;;7.12;5.35;;;;;;;15.02;66.40;99772.64;1831615;78;21167;-64